LFRD 181530Z AUTO 35010KT 300V020 CAVOK 21/16 Q1017 NOSIG

ElémentsDécodage
LFRD Station météo située sur l'aérodrome de DINARD Pleurtuit-Saint-Malo
181530Z émis le 18 du mois à 15h30 UTC
AUTO Bulletin édité par un automate
35010KT vent du 350°, 10 noeuds
300V020 vent de direction variable entre 300° et 020°
CAVOK Ceiling And Visibility OK
- Visibilité de 10 Km ou plus
- Pas de nuage au-dessous de 1500m ou au-dessous de l'altitude minimale du secteur la plus élevée (si>1500m) et absence de CB
- pas de temps présent significatif
21/16 température 21°C, point de rosée 16°C
 soit une humidité relative de 73%
Q1017 la pression au niveau de la mer (QNH) est de 1017 hPa
NOSIG Pas de changement significatif prévu au cours des deux heures suivant l'heure de l'observation